Sisseton, SD (57262)

2:16 PM CDT on September 17, 2014 (GMT -0500)
Wheaton Municipal | Change Station
CLOSE
Current Station
Airport
Location: Wheaton NDB,
Elevation: 1024 ft
Nearby Weather Stations

Elev 1024 ft 45.78 °N, 96.54 °W | Updated 20 minutes ago

Clear
Clear
70 °F
Feels Like 70 °F
N
6
Wind Variable Wind from NE

Today
High -- | Low -- °F
--% Chance of Precip.
Yesterday
High -- | Low -- °F
Precip. -- in
7:08 AM 7:35 PM
Waning Crescent, 34% visible
Pressure 29.96 in
Visibility 10.0 miles
Clouds Clear
Dew Point 52 °F
Humidity 53%
Rainfall 0.00 in
Snow Depth 0 in
UV 6 out of 12
Pollen 2.90 out of 12
Air Quality Not available.
Flu Activity Not available.
METAR KETH 171856Z AUTO 04005KT 10SM CLR 21/11 A2996 RMK AO2

More Conditions Fewer Conditions

Pressure 29.96 in
Visibility 10.0 miles
Clouds Clear
Dew Point 52 °F
Humidity 53%
Rainfall 0.00 in
Snow Depth 0 in
UV 6 out of 12
Pollen 2.90 out of 12
Air Quality Not available.
Flu Activity Not available.
METAR KETH 171856Z AUTO 04005KT 10SM CLR 21/11 A2996 RMK AO2

More Conditions Fewer Conditions

10-Day Weather Forecast

Almanac

Astronomy

Sep. 17, 2014 Rise Set
Actual Time 7:08 AM CDT 7:35 PM CDT
Civil Twilight 6:39 AM CDT 8:05 PM CDT
Nautical Twilight 6:03 AM CDT 8:40 PM CDT
Astronomical Twilight 5:27 AM CDT 9:16 PM CDT
Moon 12:57 AM CDT 3:58 PM CDT
Length of Visible Light 13h 25m
Length of Day
12h 26m
Tomorrow will be 3m 11s shorter.
Waning Crescent, 34% of the Moon is Illuminated
Today
Waning Crescent
Sep 24
New
Oct 1
First Quarter
Oct 8
Full
Oct 15
Last Quarter

Today's Extremes

State Highs State Lows

Community

WunderPhotos

Upload Photos

1,754,131 photos uploaded!

Nearby

Snow Depth

Station Depth Elevation
Blind Park 0 in 6890 ft

Earthquake Activity

City Distance Mag. Time & Date
No recent earthquake activity has been reported nearby.
Minimum magnitude displayed is 2.5.

Coastal Water Temperatures

Place Temperature
No Stations Reporting

Nearby Weather Stations